createdAt,value
2024-01-03T00:00:35.104Z,21.00
2024-01-03T00:03:02.304Z,21.70
2024-01-03T00:05:39.337Z,21.70
2024-01-03T00:08:35.579Z,21.60
2024-01-03T00:11:03.220Z,21.80
2024-01-03T00:13:39.123Z,22.50
2024-01-03T00:16:06.208Z,21.40
2024-01-03T00:18:51.014Z,20.70
2024-01-03T00:21:26.647Z,20.30
2024-01-03T00:23:57.141Z,20.60
2024-01-03T00:26:28.918Z,21.00
2024-01-03T00:28:59.909Z,19.70
2024-01-03T00:31:26.673Z,20.70
2024-01-03T00:33:54.009Z,22.10
2024-01-03T00:36:21.057Z,21.90
2024-01-03T00:38:48.032Z,22.60
2024-01-03T00:41:15.123Z,22.70
2024-01-03T00:43:42.249Z,23.60
2024-01-03T00:46:09.810Z,21.50
2024-01-03T00:48:37.200Z,20.80
2024-01-03T00:51:05.414Z,21.00
2024-01-03T00:53:33.076Z,20.20
2024-01-03T00:56:00.521Z,21.90
2024-01-03T00:58:27.576Z,20.80
2024-01-03T01:00:54.519Z,21.20
2024-01-03T01:03:21.657Z,21.40
2024-01-03T01:05:48.798Z,21.70
2024-01-03T01:08:19.389Z,22.20
2024-01-03T01:10:47.608Z,22.20
2024-01-03T01:13:14.579Z,20.80
2024-01-03T01:15:42.060Z,20.30
2024-01-03T01:18:09.482Z,21.20
2024-01-03T01:20:36.790Z,21.20
2024-01-03T01:23:04.002Z,20.70
2024-01-03T01:25:31.498Z,19.30
2024-01-03T01:27:58.526Z,21.00
2024-01-03T01:30:25.424Z,21.30
2024-01-03T01:32:53.369Z,21.90
2024-01-03T01:35:20.586Z,21.80
2024-01-03T01:37:47.665Z,22.70
2024-01-03T01:40:14.805Z,23.50
2024-01-03T01:42:43.659Z,22.80
2024-01-03T01:45:11.756Z,23.70
2024-01-03T01:47:43.547Z,22.40
2024-01-03T01:50:11.929Z,23.90
2024-01-03T01:52:40.311Z,23.30
2024-01-03T01:55:08.664Z,21.80
2024-01-03T01:57:37.315Z,22.00
2024-01-03T02:00:05.458Z,22.30
2024-01-03T02:02:32.835Z,21.60
2024-01-03T02:05:00.317Z,21.00
2024-01-03T02:07:27.682Z,21.40
2024-01-03T02:09:54.704Z,21.30
2024-01-03T02:12:28.731Z,21.50
2024-01-03T02:14:56.128Z,21.80
2024-01-03T02:17:23.653Z,21.30
2024-01-03T02:19:52.199Z,21.30
2024-01-03T02:22:19.355Z,21.30
2024-01-03T02:24:46.274Z,20.30
2024-01-03T02:27:13.239Z,21.00
2024-01-03T02:29:40.267Z,21.70
2024-01-03T02:32:07.409Z,20.30
2024-01-03T02:34:36.373Z,20.00
2024-01-03T02:37:06.402Z,20.40
2024-01-03T02:39:36.684Z,22.00
2024-01-03T02:42:06.198Z,22.10
2024-01-03T02:44:35.080Z,22.60
2024-01-03T02:47:04.127Z,21.80
2024-01-03T02:49:33.279Z,22.30
2024-01-03T02:52:02.615Z,22.60
2024-01-03T02:54:31.794Z,23.30
2024-01-03T02:57:01.016Z,22.20
2024-01-03T02:59:30.174Z,22.70
2024-01-03T03:02:00.237Z,22.40
2024-01-03T03:04:28.988Z,21.30
2024-01-03T03:06:57.544Z,23.10
2024-01-03T03:09:26.769Z,22.70
2024-01-03T03:11:56.246Z,23.00
2024-01-03T03:14:26.086Z,21.80
2024-01-03T03:16:54.940Z,21.00
2024-01-03T03:19:24.281Z,20.60
2024-01-03T03:21:53.089Z,22.30
2024-01-03T03:24:21.636Z,23.10
2024-01-03T03:26:50.852Z,22.50
2024-01-03T03:29:19.405Z,23.40
2024-01-03T03:31:48.119Z,23.60
2024-01-03T03:34:19.415Z,22.50
2024-01-03T03:36:50.036Z,22.00
2024-01-03T03:39:18.561Z,21.80
2024-01-03T03:41:46.798Z,22.20
2024-01-03T03:44:15.457Z,22.90
2024-01-03T03:46:44.691Z,23.20
2024-01-03T03:49:12.970Z,23.70
2024-01-03T03:51:41.907Z,22.80
2024-01-03T03:54:09.854Z,23.30
2024-01-03T03:56:38.103Z,22.50
2024-01-03T03:59:09.057Z,23.60
2024-01-03T04:01:36.782Z,23.70
2024-01-03T04:04:05.988Z,25.10
2024-01-03T04:06:35.450Z,24.30
2024-01-03T04:09:04.686Z,24.40
2024-01-03T04:11:33.696Z,25.10
2024-01-03T04:14:02.124Z,25.40
2024-01-03T04:16:31.290Z,24.00
2024-01-03T04:21:45.509Z,23.40
2024-01-03T04:24:14.157Z,23.70
2024-01-03T04:26:43.229Z,24.50
2024-01-03T04:29:12.518Z,24.00
2024-01-03T04:31:41.156Z,23.90
2024-01-03T04:34:10.450Z,23.80
2024-01-03T04:36:39.544Z,22.50
2024-01-03T04:39:08.142Z,23.80
2024-01-03T04:41:35.152Z,23.20
2024-01-03T04:44:02.172Z,23.10
2024-01-03T04:46:29.125Z,23.70
2024-01-03T04:48:56.134Z,24.20
2024-01-03T04:51:25.920Z,24.50
2024-01-03T04:53:52.927Z,23.10
2024-01-03T04:56:20.245Z,22.10
2024-01-03T04:58:47.327Z,22.20
2024-01-03T05:01:14.155Z,24.30
2024-01-03T05:03:41.060Z,22.60
2024-01-03T05:06:08.158Z,22.90
2024-01-03T05:08:35.152Z,22.90
2024-01-03T05:11:02.067Z,23.80
2024-01-03T05:13:31.159Z,24.60
2024-01-03T05:15:59.225Z,24.80
2024-01-03T05:18:28.462Z,26.20
2024-01-03T05:20:55.933Z,25.70
2024-01-03T05:23:22.928Z,25.50
2024-01-03T05:25:49.868Z,25.40
2024-01-03T05:28:16.834Z,25.10
2024-01-03T05:30:43.828Z,23.70
2024-01-03T05:33:11.869Z,24.90
2024-01-03T05:35:38.853Z,25.60
2024-01-03T05:38:05.905Z,25.60
2024-01-03T05:40:33.121Z,25.80
2024-01-03T05:43:00.053Z,26.80
2024-01-03T05:45:28.945Z,26.20
2024-01-03T05:47:55.992Z,27.60
2024-01-03T05:50:24.033Z,27.80
2024-01-03T05:52:51.073Z,27.80
2024-01-03T05:55:18.023Z,28.60
2024-01-03T05:57:45.067Z,27.60
2024-01-03T06:00:12.820Z,27.40
2024-01-03T06:02:39.797Z,25.60
2024-01-03T06:05:07.378Z,26.10
2024-01-03T06:07:34.221Z,24.10
2024-01-03T06:10:01.117Z,23.10
2024-01-03T06:12:28.131Z,24.70
2024-01-03T06:14:55.130Z,25.80
2024-01-03T06:17:22.147Z,26.80
2024-01-03T06:19:49.117Z,25.60
2024-01-03T06:22:16.522Z,25.90
2024-01-03T06:24:43.410Z,25.90
2024-01-03T06:27:10.539Z,25.80
2024-01-03T06:29:40.675Z,24.20
2024-01-03T06:32:08.772Z,24.70
2024-01-03T06:34:35.937Z,23.00
2024-01-03T06:37:03.248Z,25.70
2024-01-03T06:39:30.216Z,26.20
2024-01-03T06:41:57.344Z,24.30
2024-01-03T06:44:25.189Z,25.90
2024-01-03T06:46:52.566Z,24.40
2024-01-03T06:49:19.556Z,23.70
2024-01-03T06:51:46.626Z,26.20
2024-01-03T06:54:13.514Z,27.00
2024-01-03T06:56:40.450Z,27.10
2024-01-03T06:59:07.480Z,26.90
2024-01-03T07:01:34.338Z,28.00
2024-01-03T07:04:03.162Z,28.20
2024-01-03T07:06:30.528Z,28.50
2024-01-03T07:08:57.598Z,28.70
2024-01-03T07:11:24.496Z,28.60
2024-01-03T07:13:51.493Z,28.50
2024-01-03T07:16:19.409Z,27.60
2024-01-03T07:18:46.671Z,26.60
2024-01-03T07:21:13.781Z,26.30
2024-01-03T07:23:40.718Z,27.00
2024-01-03T07:26:07.656Z,27.10
2024-01-03T07:28:34.816Z,27.00
2024-01-03T07:31:02.312Z,27.20
2024-01-03T07:33:29.885Z,27.30
2024-01-03T07:35:56.985Z,27.90
2024-01-03T07:38:24.033Z,28.70
2024-01-03T07:40:51.004Z,29.10
2024-01-03T07:43:18.165Z,29.00
2024-01-03T07:45:45.068Z,28.70
2024-01-03T07:48:12.323Z,28.80
2024-01-03T07:50:39.545Z,27.80
2024-01-03T07:53:08.539Z,27.70
2024-01-03T07:55:35.527Z,27.70
2024-01-03T07:58:02.868Z,28.70
2024-01-03T08:00:32.639Z,28.30
2024-01-03T08:02:59.592Z,28.30
2024-01-03T08:05:26.810Z,28.50
2024-01-03T08:07:53.791Z,28.10
2024-01-03T08:10:20.709Z,28.30
2024-01-03T08:12:50.001Z,29.20
2024-01-03T08:15:18.216Z,29.70
2024-01-03T08:17:45.240Z,29.60
2024-01-03T08:20:13.030Z,29.60
2024-01-03T08:22:40.235Z,29.70
2024-01-03T08:25:07.670Z,29.30
2024-01-03T08:27:37.619Z,29.80
2024-01-03T08:30:05.246Z,29.30
2024-01-03T08:32:32.320Z,30.20
2024-01-03T08:35:00.042Z,29.90
2024-01-03T08:37:26.970Z,30.00
2024-01-03T08:39:53.844Z,30.50
2024-01-03T08:42:20.833Z,31.10
2024-01-03T08:44:47.778Z,30.90
2024-01-03T08:47:15.369Z,30.90
2024-01-03T08:49:44.899Z,31.10
2024-01-03T08:52:12.015Z,30.60
2024-01-03T08:54:38.907Z,31.10
2024-01-03T08:57:05.986Z,31.50
2024-01-03T08:59:33.033Z,31.80
2024-01-03T09:01:59.997Z,31.50
2024-01-03T09:04:27.070Z,31.60
2024-01-03T09:06:54.016Z,31.70
2024-01-03T09:09:20.990Z,31.50
2024-01-03T09:11:48.098Z,31.70
2024-01-03T09:14:15.133Z,31.60
2024-01-03T09:16:42.036Z,31.50
2024-01-03T09:19:10.663Z,31.60
2024-01-03T09:21:45.535Z,32.00
2024-01-03T09:24:12.973Z,32.20
2024-01-03T09:26:39.955Z,32.10
2024-01-03T09:29:08.384Z,31.70
2024-01-03T09:31:43.418Z,30.80
2024-01-03T09:34:10.798Z,31.00
2024-01-03T09:36:37.938Z,30.30
2024-01-03T09:39:04.899Z,29.70
2024-01-03T09:41:34.283Z,29.70
2024-01-03T09:44:05.205Z,30.10
2024-01-03T09:46:33.258Z,29.60
2024-01-03T09:49:00.454Z,30.80
2024-01-03T09:51:27.528Z,31.00
2024-01-03T09:53:56.593Z,31.00
2024-01-03T09:56:23.973Z,31.30
2024-01-03T09:58:51.003Z,31.80
2024-01-03T10:01:18.301Z,32.30
2024-01-03T10:03:45.872Z,32.60
2024-01-03T10:06:19.420Z,32.30
2024-01-03T10:09:02.093Z,32.20
2024-01-03T10:11:29.537Z,31.90
2024-01-03T10:13:58.036Z,32.00
2024-01-03T10:16:28.678Z,31.60
2024-01-03T10:19:12.558Z,31.60
2024-01-03T10:21:46.908Z,31.70
2024-01-03T10:24:14.349Z,31.30
2024-01-03T10:26:41.540Z,31.60
2024-01-03T10:29:12.794Z,32.00
2024-01-03T10:31:40.400Z,31.50
2024-01-03T10:34:08.547Z,31.50
2024-01-03T10:36:37.235Z,31.20
2024-01-03T10:39:05.708Z,30.80
2024-01-03T10:41:33.769Z,30.30
2024-01-03T10:44:04.048Z,30.30
2024-01-03T10:46:31.720Z,30.00
2024-01-03T10:48:58.952Z,30.10
2024-01-03T10:51:31.432Z,30.50
2024-01-03T10:54:00.287Z,30.50
2024-01-03T10:56:28.405Z,30.80
2024-01-03T10:58:56.336Z,30.50
2024-01-03T11:01:34.118Z,29.50
2024-01-03T11:04:17.829Z,29.10
2024-01-03T11:06:58.346Z,29.20
2024-01-03T11:09:28.137Z,27.70
2024-01-03T11:12:17.416Z,27.50
2024-01-03T11:14:46.040Z,27.10
2024-01-03T11:17:13.143Z,26.40
2024-01-03T11:19:40.422Z,26.10
2024-01-03T11:22:07.761Z,25.90
2024-01-03T11:24:34.668Z,25.10
2024-01-03T11:27:07.964Z,25.40
2024-01-03T11:29:40.420Z,25.00
2024-01-03T11:32:08.899Z,24.90
2024-01-03T11:34:46.384Z,25.30
2024-01-03T11:37:20.035Z,25.00
2024-01-03T11:39:48.774Z,24.90
2024-01-03T11:42:20.212Z,24.60
2024-01-03T11:44:48.137Z,24.40
2024-01-03T11:47:15.085Z,24.40
2024-01-03T11:49:42.330Z,24.60
2024-01-03T11:52:09.322Z,24.60
2024-01-03T11:54:36.458Z,24.90
2024-01-03T11:57:09.838Z,24.40
2024-01-03T11:59:36.768Z,24.90
2024-01-03T12:02:04.207Z,25.20
2024-01-03T12:04:31.282Z,25.20
2024-01-03T12:06:58.904Z,24.90
2024-01-03T12:09:32.631Z,24.70
2024-01-03T12:11:59.955Z,24.50
2024-01-03T12:14:27.321Z,24.40
2024-01-03T12:16:57.363Z,24.80
2024-01-03T12:19:29.113Z,24.40
2024-01-03T12:21:57.553Z,24.60
2024-01-03T12:24:45.061Z,24.20
2024-01-03T12:27:12.510Z,24.60
2024-01-03T12:29:41.226Z,25.20
2024-01-03T12:32:17.480Z,25.50
2024-01-03T12:34:47.628Z,26.50
2024-01-03T12:37:15.708Z,26.30
2024-01-03T12:39:43.157Z,26.20
2024-01-03T12:42:11.755Z,26.00
2024-01-03T12:44:40.297Z,26.30
2024-01-03T12:47:09.910Z,26.00
2024-01-03T12:49:41.633Z,26.40
2024-01-03T12:52:10.213Z,26.70
2024-01-03T12:54:37.809Z,25.50
2024-01-03T12:57:05.966Z,26.40
2024-01-03T12:59:33.094Z,26.80
2024-01-03T13:02:01.258Z,26.30
2024-01-03T13:04:28.658Z,26.60
2024-01-03T13:06:56.837Z,26.80
2024-01-03T13:09:25.601Z,27.00
2024-01-03T13:11:54.020Z,27.00
2024-01-03T13:14:21.196Z,27.40
2024-01-03T13:16:48.379Z,26.60
2024-01-03T13:19:16.906Z,27.20
2024-01-03T13:21:46.111Z,28.00
2024-01-03T13:24:14.292Z,28.20
2024-01-03T13:26:41.713Z,28.40
2024-01-03T13:29:08.975Z,28.00
2024-01-03T13:31:35.915Z,28.20
2024-01-03T13:34:03.153Z,28.40
2024-01-03T13:36:31.367Z,28.90
2024-01-03T13:38:58.462Z,29.00
2024-01-03T13:41:25.650Z,29.10
2024-01-03T13:43:53.994Z,29.70
2024-01-03T13:46:22.587Z,29.80
2024-01-03T13:48:49.568Z,29.90
2024-01-03T13:51:18.778Z,30.00
2024-01-03T13:53:46.891Z,29.50
2024-01-03T13:56:14.076Z,30.10
2024-01-03T13:58:47.025Z,30.20
2024-01-03T14:01:14.205Z,30.00
2024-01-03T14:03:42.955Z,30.30
2024-01-03T14:06:10.864Z,29.70
2024-01-03T14:08:38.152Z,29.80
2024-01-03T14:11:06.318Z,29.90
2024-01-03T14:13:33.491Z,30.10
2024-01-03T14:16:01.338Z,30.30
2024-01-03T14:18:28.757Z,30.70
2024-01-03T14:20:56.840Z,30.50
2024-01-03T14:23:24.633Z,30.00
2024-01-03T14:25:51.582Z,30.70
2024-01-03T14:28:22.351Z,30.50
2024-01-03T14:30:50.425Z,29.50
2024-01-03T14:33:17.535Z,29.80
2024-01-03T14:35:44.598Z,29.40
2024-01-03T14:38:12.949Z,29.40
2024-01-03T14:40:44.208Z,29.30
2024-01-03T14:43:26.157Z,29.50
2024-01-03T14:45:53.228Z,28.90
2024-01-03T14:48:20.199Z,29.60
2024-01-03T14:50:47.218Z,30.10
2024-01-03T14:53:14.265Z,30.60
2024-01-03T14:55:41.124Z,30.20
2024-01-03T14:58:08.157Z,30.60
2024-01-03T15:00:35.282Z,31.20
2024-01-03T15:03:09.920Z,31.00
2024-01-03T15:05:43.355Z,30.40
2024-01-03T15:08:13.203Z,30.50
2024-01-03T15:10:40.492Z,30.50
2024-01-03T15:13:08.370Z,30.80
2024-01-03T15:15:38.463Z,31.20
2024-01-03T15:18:06.343Z,31.10
2024-01-03T15:20:34.124Z,31.40
2024-01-03T15:23:01.702Z,31.80
2024-01-03T15:25:28.969Z,31.80
2024-01-03T15:28:02.896Z,32.10
2024-01-03T15:30:33.248Z,31.30
2024-01-03T15:33:03.579Z,31.10
2024-01-03T15:35:31.706Z,30.90
2024-01-03T15:37:59.540Z,30.70
2024-01-03T15:40:26.905Z,30.60
2024-01-03T15:42:58.394Z,30.80
2024-01-03T15:45:26.872Z,30.70
2024-01-03T15:47:53.896Z,29.90
2024-01-03T15:50:20.940Z,29.80
2024-01-03T15:52:47.903Z,30.30
2024-01-03T15:55:17.441Z,30.10
2024-01-03T15:57:47.227Z,30.50
2024-01-03T16:00:14.626Z,30.30
2024-01-03T16:02:41.757Z,30.00
2024-01-03T16:05:08.979Z,29.60
2024-01-03T16:07:36.016Z,28.70
2024-01-03T16:10:03.028Z,27.80
2024-01-03T16:12:30.071Z,27.40
2024-01-03T16:14:58.796Z,27.40
2024-01-03T16:17:27.696Z,27.20
2024-01-03T16:19:55.048Z,26.90
2024-01-03T16:22:22.729Z,27.10
2024-01-03T16:24:49.836Z,27.10
2024-01-03T16:27:19.135Z,27.50
2024-01-03T16:29:46.981Z,28.50
2024-01-03T16:32:15.432Z,29.10
2024-01-03T16:34:43.658Z,29.50
2024-01-03T16:37:15.796Z,29.50
2024-01-03T16:39:43.632Z,29.20
2024-01-03T16:42:11.145Z,28.40
2024-01-03T16:44:38.644Z,28.30
2024-01-03T16:47:05.968Z,28.70
2024-01-03T16:49:33.348Z,28.90
2024-01-03T16:52:00.515Z,29.00
2024-01-03T16:54:28.590Z,28.60
2024-01-03T16:56:56.872Z,29.10
2024-01-03T16:59:24.950Z,29.50
2024-01-03T17:01:54.309Z,28.70
2024-01-03T17:04:23.401Z,29.10
2024-01-03T17:06:50.617Z,28.80
2024-01-03T17:09:18.355Z,28.00
2024-01-03T17:11:46.295Z,27.50
2024-01-03T17:14:16.220Z,27.60
2024-01-03T17:16:43.949Z,27.60
2024-01-03T17:19:11.314Z,27.20
2024-01-03T17:21:38.490Z,26.60
2024-01-03T17:24:07.304Z,26.50
2024-01-03T17:26:37.120Z,26.30
2024-01-03T17:29:05.559Z,26.30
2024-01-03T17:31:36.132Z,26.50
2024-01-03T17:34:03.792Z,26.90
2024-01-03T17:36:31.613Z,27.00
2024-01-03T17:38:59.467Z,27.90
2024-01-03T17:41:27.978Z,28.90
2024-01-03T17:43:57.172Z,29.10
2024-01-03T17:46:24.503Z,28.80
2024-01-03T17:48:52.982Z,28.60
2024-01-03T17:51:21.967Z,28.20
2024-01-03T17:53:55.738Z,27.90
2024-01-03T17:56:29.917Z,27.70
2024-01-03T17:59:00.821Z,27.30
2024-01-03T18:01:30.383Z,26.60
2024-01-03T18:03:57.494Z,27.20
2024-01-03T18:06:24.550Z,27.30
2024-01-03T18:08:51.693Z,27.40
2024-01-03T18:11:18.866Z,26.90
2024-01-03T18:13:45.896Z,27.00
2024-01-03T18:16:15.559Z,26.80
2024-01-03T18:18:43.052Z,26.60
2024-01-03T18:21:10.135Z,27.10
2024-01-03T18:23:38.317Z,27.20
2024-01-03T18:26:05.988Z,26.70
2024-01-03T18:28:33.362Z,26.60
2024-01-03T18:31:01.324Z,26.40
2024-01-03T18:33:28.622Z,26.30
2024-01-03T18:35:55.870Z,25.70
2024-01-03T18:38:23.148Z,26.20
2024-01-03T18:40:50.292Z,25.60
2024-01-03T18:43:17.778Z,25.70
2024-01-03T18:45:44.848Z,25.60
2024-01-03T18:48:12.404Z,25.90
2024-01-03T18:50:41.693Z,26.20
2024-01-03T18:53:08.783Z,26.30
2024-01-03T18:55:35.728Z,27.00
2024-01-03T18:58:02.735Z,27.30
2024-01-03T19:00:30.771Z,27.30
2024-01-03T19:02:57.779Z,27.70
2024-01-03T19:05:30.544Z,27.40
2024-01-03T19:07:58.860Z,27.40
2024-01-03T19:10:25.886Z,27.60
2024-01-03T19:12:53.167Z,27.20
2024-01-03T19:15:20.242Z,27.60
2024-01-03T19:17:47.544Z,27.70
2024-01-03T19:20:14.738Z,27.70
2024-01-03T19:22:43.719Z,27.90
2024-01-03T19:25:14.626Z,27.80
2024-01-03T19:27:42.248Z,28.20
2024-01-03T19:30:10.680Z,28.50
2024-01-03T19:32:38.188Z,28.40
2024-01-03T19:35:07.173Z,29.00
2024-01-03T19:37:35.870Z,29.20
2024-01-03T19:40:03.565Z,29.10
2024-01-03T19:42:30.822Z,28.20
2024-01-03T19:44:57.802Z,28.40
2024-01-03T19:47:24.913Z,28.10
2024-01-03T19:49:52.839Z,28.00
2024-01-03T19:52:19.984Z,28.70
2024-01-03T19:54:46.962Z,29.50
2024-01-03T19:57:14.082Z,29.90
2024-01-03T19:59:41.626Z,30.50
2024-01-03T20:02:08.663Z,30.50
2024-01-03T20:04:40.964Z,30.60
2024-01-03T20:07:09.172Z,30.70
2024-01-03T20:09:36.539Z,31.30
2024-01-03T20:12:04.683Z,30.70
2024-01-03T20:14:31.951Z,31.30
2024-01-03T20:16:59.080Z,31.50
2024-01-03T20:19:26.401Z,31.80
2024-01-03T20:21:54.791Z,31.70
2024-01-03T20:24:22.221Z,31.40
2024-01-03T20:26:49.532Z,30.80
2024-01-03T20:29:17.645Z,30.80
2024-01-03T20:31:44.692Z,30.80
2024-01-03T20:34:12.374Z,31.00
2024-01-03T20:36:49.675Z,30.60
2024-01-03T20:39:17.690Z,29.40
2024-01-03T20:41:47.084Z,28.70
2024-01-03T20:44:14.706Z,28.50
2024-01-03T20:46:42.384Z,28.30
2024-01-03T20:49:13.151Z,28.10
2024-01-03T20:51:40.255Z,28.40
2024-01-03T20:54:07.288Z,28.60
2024-01-03T20:56:34.468Z,28.80
2024-01-03T20:59:01.853Z,28.60
2024-01-03T21:01:29.030Z,29.30
2024-01-03T21:03:56.643Z,29.40
2024-01-03T21:06:23.902Z,29.40
2024-01-03T21:08:50.922Z,29.30
2024-01-03T21:11:20.978Z,29.50
2024-01-03T21:13:48.418Z,30.10
2024-01-03T21:16:15.789Z,30.10
2024-01-03T21:18:42.986Z,30.20
2024-01-03T21:21:10.524Z,29.80
2024-01-03T21:23:37.622Z,30.10
2024-01-03T21:26:04.746Z,30.30
2024-01-03T21:28:31.970Z,30.80
2024-01-03T21:30:59.040Z,30.90
2024-01-03T21:33:26.254Z,31.00
2024-01-03T21:35:54.150Z,30.90
2024-01-03T21:38:21.230Z,30.00
2024-01-03T21:40:48.220Z,30.20
2024-01-03T21:43:15.271Z,30.20
2024-01-03T21:45:43.749Z,30.40
2024-01-03T21:48:10.786Z,30.30
2024-01-03T21:50:38.009Z,30.40
2024-01-03T21:53:07.801Z,30.10
2024-01-03T21:55:34.917Z,30.30
2024-01-03T21:58:01.963Z,30.50
2024-01-03T22:00:28.865Z,30.40
2024-01-03T22:02:55.908Z,30.70
2024-01-03T22:05:24.538Z,30.60
2024-01-03T22:07:51.645Z,30.90
2024-01-03T22:10:19.131Z,31.30
2024-01-03T22:12:49.735Z,31.50
2024-01-03T22:15:18.099Z,31.80
2024-01-03T22:17:46.006Z,30.90
2024-01-03T22:20:14.948Z,31.40
2024-01-03T22:22:42.920Z,31.60
2024-01-03T22:25:11.304Z,31.50
2024-01-03T22:27:39.206Z,31.30
2024-01-03T22:30:07.292Z,31.40
2024-01-03T22:32:35.786Z,30.80
2024-01-03T22:35:02.927Z,30.20
2024-01-03T22:37:30.007Z,29.70
2024-01-03T22:39:57.234Z,29.40
2024-01-03T22:42:25.101Z,29.00
2024-01-03T22:44:52.527Z,28.80
2024-01-03T22:47:19.527Z,28.80
2024-01-03T22:49:46.924Z,29.00
2024-01-03T22:52:14.077Z,29.60
2024-01-03T22:54:41.068Z,29.70
2024-01-03T22:57:08.278Z,29.10
2024-01-03T22:59:35.812Z,28.40
2024-01-03T23:02:03.838Z,28.10
2024-01-03T23:04:32.036Z,27.90
2024-01-03T23:06:59.172Z,28.20
2024-01-03T23:09:26.275Z,28.20
2024-01-03T23:11:53.356Z,28.00
2024-01-03T23:14:20.438Z,28.30
2024-01-03T23:16:47.304Z,28.60
2024-01-03T23:19:14.388Z,28.80
2024-01-03T23:21:41.390Z,28.50
2024-01-03T23:24:08.458Z,28.50
2024-01-03T23:26:35.544Z,28.70
2024-01-03T23:29:02.486Z,28.50
2024-01-03T23:31:29.497Z,28.50
2024-01-03T23:33:56.777Z,28.70
2024-01-03T23:36:24.049Z,28.70
2024-01-03T23:38:51.393Z,29.00
2024-01-03T23:41:18.400Z,29.10
2024-01-03T23:43:47.629Z,28.50
2024-01-03T23:46:16.387Z,27.80
2024-01-03T23:48:43.755Z,26.90
2024-01-03T23:51:17.207Z,26.70
2024-01-03T23:53:44.167Z,26.90
2024-01-03T23:56:19.139Z,27.10
2024-01-03T23:58:46.034Z,26.90
